Annawan, Illinois
Current Conditions -  °F | °C
As of 1:35 PM on Monday 22 Dec 2014 (Local Time) from KSQI Reporting Station
Overcast Overcast  
Wind Chill: 26°   Ceiling: 600
Heat Index: 36°   Visibility: 2.5mi
Dew Point: 32°   Wind: 15mph
Humidity: 87%   Direction: 100°E
Pressure: 29.63"   Gusts: NA
Location:  41.4°N, 89.9°W
Report Text: KSQI 221935Z 10013KT 2 1/2SM OVC006 02/00 A2963 RMK AO1 P0001
Loading
Personal Weather Stations






























Interactive Weather Map New forecast layout! Learn more

10-Day Weather Forecast

Advertisements
Track Severe Weather on mobile